Amity, Arkansas
Current Conditions -  °F | °C
As of 3:53 PM on Sunday 25 Jan 2015 (Local Time) from KMWT Reporting Station
Overcast Overcast  
Wind Chill: 53°   Ceiling: 5500
Heat Index: 53°   Visibility: 10mi
Dew Point: 32°   Wind: 13mph
Humidity: 45%   Direction: 340°NNW
Pressure: 29.87"   Gusts: 28mph
Location:  34.26°N, 93.46°W
Report Text: KMWT 252153Z AUTO 34011G24KT 10SM OVC055 12/00 A2987 RMK AO2 PK WND 33026/2129 SLP119 T01170000 $
Loading
Personal Weather Stations






























Interactive Weather Map New forecast layout! Learn more

10-Day Weather Forecast

Advertisements
Track Severe Weather on mobile